Time;durP1;ratioP1;P1;durP2;ratioP2;P2;SDS_P1;SDS_P2;PMS_P1;PMS_P2;Temp;Humidity;BMP_temperature;BMP_pressure;BME280_temperature;BME280_humidity;BME280_pressure;Samples;Min_cycle;Max_cycle;Signal;HPM_P1;HPM_P2
2021/01/26 00:00:10;;;;;;;2.30;1.53;;;;;;;;;;5003991;23;20649;-92
2021/01/26 00:02:36;;;;;;;1.90;1.57;;;;;;;;;;5023866;28;20464;-96
2021/01/26 00:05:02;;;;;;;1.50;1.30;;;;;;;;;;5020999;28;20486;-92
2021/01/26 00:07:29;;;;;;;1.53;1.43;;;;;;;;;;5024341;28;20479;-93
2021/01/26 00:09:55;;;;;;;2.27;1.73;;;;;;;;;;5021210;28;20471;-93
2021/01/26 00:12:21;;;;;;;1.67;1.40;;;;;;;;;;5024906;28;20511;-93
2021/01/26 00:14:47;;;;;;;1.77;1.60;;;;;;;;;;5024734;28;20442;-94
2021/01/26 00:17:13;;;;;;;2.80;1.50;;;;;;;;;;5032304;28;20471;-94
2021/01/26 00:19:39;;;;;;;2.13;1.80;;;;;;;;;;5023476;28;20471;-95
2021/01/26 00:22:05;;;;;;;2.60;1.50;;;;;;;;;;5020819;28;20475;-94
2021/01/26 00:24:32;;;;;;;2.67;1.40;;;;;;;;;;5022222;28;20507;-95
2021/01/26 00:26:58;;;;;;;3.03;1.23;;;;;;;;;;5020296;28;20466;-94
2021/01/26 00:29:24;;;;;;;1.97;1.30;;;;;;;;;;5021728;28;20480;-94
2021/01/26 00:31:51;;;;;;;1.20;1.10;;;;;;;;;;5019605;28;20455;-96
2021/01/26 00:34:18;;;;;;;2.17;1.60;;;;;;;;;;5022116;28;20527;-96
2021/01/26 00:36:43;;;;;;;3.13;1.83;;;;;;;;;;5020646;28;20455;-93
2021/01/26 00:39:14;;;;;;;3.13;1.60;;;;;;;;;;5025482;28;20547;-96
2021/01/26 00:41:41;;;;;;;2.00;1.40;;;;;;;;;;5019693;28;20998;-96
2021/01/26 00:44:09;;;;;;;2.60;1.37;;;;;;;;;;5024410;28;20503;-95
2021/01/26 00:46:35;;;;;;;2.90;1.50;;;;;;;;;;5021417;28;20510;-96
2021/01/26 00:49:01;;;;;;;1.87;1.37;;;;;;;;;;5017936;28;21286;-96
2021/01/26 00:51:27;;;;;;;4.40;1.30;;;;;;;;;;5015892;28;20455;-95
2021/01/26 00:53:53;;;;;;;1.70;1.60;;;;;;;;;;5026645;28;20456;-95
2021/01/26 00:56:20;;;;;;;3.10;1.40;;;;;;;;;;5026985;28;20458;-94
2021/01/26 00:58:47;;;;;;;2.13;1.40;;;;;;;;;;5026743;28;20443;-93
2021/01/26 01:01:13;;;;;;;1.40;1.20;;;;;;;;;;5028777;28;20566;-92
2021/01/26 01:03:40;;;;;;;1.70;1.30;;;;;;;;;;5030169;28;20466;-96
2021/01/26 01:06:06;;;;;;;2.23;1.20;;;;;;;;;;5028163;28;20452;-94
2021/01/26 01:08:35;;;;;;;3.10;1.33;;;;;;;;;;5025618;28;20466;-92
2021/01/26 01:11:01;;;;;;;3.20;1.50;;;;;;;;;;5026379;28;20451;-94
2021/01/26 01:13:27;;;;;;;2.50;1.30;;;;;;;;;;5022890;28;20452;-94
2021/01/26 01:15:54;;;;;;;1.83;1.47;;;;;;;;;;5026830;28;20481;-92
2021/01/26 01:18:20;;;;;;;1.37;1.27;;;;;;;;;;5022904;28;20463;-93
2021/01/26 01:20:46;;;;;;;2.23;1.40;;;;;;;;;;5027519;28;20570;-95
2021/01/26 01:23:12;;;;;;;1.63;1.30;;;;;;;;;;5023658;28;20459;-96
2021/01/26 01:25:38;;;;;;;3.97;1.70;;;;;;;;;;5021398;28;20458;-94
2021/01/26 01:28:07;;;;;;;2.20;1.40;;;;;;;;;;5027039;28;20482;-96
2021/01/26 01:30:34;;;;;;;3.90;1.83;;;;;;;;;;5026258;28;20436;-94
2021/01/26 01:33:01;;;;;;;1.67;1.30;;;;;;;;;;5024711;28;20464;-96
2021/01/26 01:35:27;;;;;;;1.40;1.30;;;;;;;;;;5027115;28;20452;-95
2021/01/26 01:37:54;;;;;;;8.53;2.07;;;;;;;;;;5017612;28;20458;-96
2021/01/26 01:40:22;;;;;;;2.50;1.40;;;;;;;;;;5027051;28;20518;-95
2021/01/26 01:42:48;;;;;;;4.33;1.83;;;;;;;;;;5027324;28;20455;-96
2021/01/26 01:45:15;;;;;;;1.90;1.50;;;;;;;;;;5023935;28;20960;-94
2021/01/26 01:47:44;;;;;;;3.73;1.57;;;;;;;;;;5027118;28;20463;-96
2021/01/26 01:50:14;;;;;;;1.80;1.23;;;;;;;;;;5003305;28;20469;-93
2021/01/26 01:52:40;;;;;;;2.20;1.50;;;;;;;;;;5018405;28;20444;-94
2021/01/26 01:55:09;;;;;;;2.13;1.53;;;;;;;;;;5023976;28;20460;-95
2021/01/26 01:57:36;;;;;;;4.60;1.53;;;;;;;;;;5024175;28;20540;-95
2021/01/26 02:00:08;;;;;;;2.67;1.33;;;;;;;;;;5023720;28;20518;-95
2021/01/26 02:02:38;;;;;;;1.77;1.33;;;;;;;;;;5008692;28;20463;-93
2021/01/26 02:05:05;;;;;;;1.70;1.30;;;;;;;;;;5023155;28;20459;-95
2021/01/26 02:07:33;;;;;;;1.80;1.53;;;;;;;;;;5022106;28;20672;-94
2021/01/26 02:09:59;;;;;;;5.67;1.50;;;;;;;;;;5023021;28;20456;-92
2021/01/26 02:12:25;;;;;;;1.80;1.53;;;;;;;;;;5024824;28;20466;-93
2021/01/26 02:14:54;;;;;;;1.80;1.43;;;;;;;;;;5025511;28;20452;-94
2021/01/26 02:17:27;;;;;;;4.20;1.60;;;;;;;;;;5026212;28;20452;-95
2021/01/26 02:20:08;;;;;;;1.93;1.60;;;;;;;;;;5015236;28;20460;-95
2021/01/26 02:23:04;;;;;;;2.00;1.53;;;;;;;;;;5024551;28;20443;-96
2021/01/26 02:25:44;;;;;;;1.87;1.40;;;;;;;;;;5015054;28;20456;-96
2021/01/26 02:28:24;;;;;;;2.93;1.90;;;;;;;;;;5023199;28;20449;-96
2021/01/26 02:30:54;;;;;;;4.00;3.40;;;;;;;;;;5022253;28;20468;-94
2021/01/26 02:33:38;;;;;;;2.17;1.60;;;;;;;;;;5025969;28;20530;-94
2021/01/26 02:36:22;;;;;;;5.00;1.70;;;;;;;;;;5021153;28;20467;-96
2021/01/26 02:38:59;;;;;;;5.37;1.60;;;;;;;;;;5014376;28;20467;-96
2021/01/26 02:41:29;;;;;;;3.53;1.43;;;;;;;;;;5015477;28;20495;-96
2021/01/26 02:44:01;;;;;;;2.40;1.57;;;;;;;;;;5026025;28;20459;-94
2021/01/26 02:46:32;;;;;;;2.13;1.40;;;;;;;;;;5022508;28;20491;-94
2021/01/26 02:49:03;;;;;;;1.63;1.50;;;;;;;;;;5025655;28;20483;-96
2021/01/26 02:51:33;;;;;;;2.70;1.57;;;;;;;;;;5025016;28;20532;-94
2021/01/26 02:54:02;;;;;;;3.33;1.30;;;;;;;;;;5026848;28;20484;-93
2021/01/26 02:56:34;;;;;;;5.00;1.77;;;;;;;;;;5034428;28;20459;-94
2021/01/26 02:59:02;;;;;;;2.30;1.80;;;;;;;;;;5030699;28;20456;-93
2021/01/26 03:01:32;;;;;;;1.60;1.47;;;;;;;;;;5022457;28;20506;-94
2021/01/26 03:04:00;;;;;;;1.83;1.30;;;;;;;;;;5023635;28;20455;-96
2021/01/26 03:06:30;;;;;;;2.60;1.80;;;;;;;;;;5022953;28;20464;-96
2021/01/26 03:08:58;;;;;;;2.50;1.67;;;;;;;;;;5024554;28;20463;-95
2021/01/26 03:11:27;;;;;;;3.13;1.67;;;;;;;;;;5025219;28;20447;-94
2021/01/26 03:14:02;;;;;;;4.03;1.60;;;;;;;;;;5023102;28;20519;-96
2021/01/26 03:16:32;;;;;;;2.03;1.33;;;;;;;;;;5023062;28;20455;-93
2021/01/26 03:19:02;;;;;;;7.53;1.53;;;;;;;;;;5023079;28;20460;-95
2021/01/26 03:21:29;;;;;;;3.67;1.57;;;;;;;;;;5025991;28;20579;-91
2021/01/26 03:23:58;;;;;;;1.83;1.43;;;;;;;;;;5025340;28;20456;-96
2021/01/26 03:26:25;;;;;;;4.73;2.00;;;;;;;;;;5025852;28;20490;-94
2021/01/26 03:28:56;;;;;;;2.17;1.70;;;;;;;;;;5024934;28;20466;-96
2021/01/26 03:31:26;;;;;;;2.53;1.70;;;;;;;;;;5019396;28;21514;-95
2021/01/26 03:33:53;;;;;;;3.03;1.70;;;;;;;;;;5023996;28;20814;-95
2021/01/26 03:36:21;;;;;;;1.77;1.60;;;;;;;;;;5026894;28;20456;-94
2021/01/26 03:38:48;;;;;;;3.00;1.53;;;;;;;;;;5024830;28;20456;-96
2021/01/26 03:41:14;;;;;;;3.30;1.50;;;;;;;;;;5026232;28;20503;-94
2021/01/26 03:43:40;;;;;;;2.40;1.90;;;;;;;;;;5014425;28;20514;-95
2021/01/26 03:46:09;;;;;;;2.70;1.57;;;;;;;;;;5025597;28;20467;-94
2021/01/26 03:48:46;;;;;;;1.53;1.43;;;;;;;;;;5021990;28;20460;-94
2021/01/26 03:51:16;;;;;;;2.13;1.87;;;;;;;;;;5024785;28;20447;-96
2021/01/26 03:53:58;;;;;;;2.57;1.60;;;;;;;;;;5022079;28;20487;-93
2021/01/26 03:56:31;;;;;;;1.70;1.40;;;;;;;;;;5017731;28;20448;-96
2021/01/26 03:59:07;;;;;;;3.93;2.00;;;;;;;;;;5022628;28;20456;-96
2021/01/26 04:01:38;;;;;;;4.17;1.97;;;;;;;;;;5025697;28;20467;-96
2021/01/26 04:04:07;;;;;;;1.80;1.70;;;;;;;;;;5024269;28;20482;-96
2021/01/26 04:06:37;;;;;;;3.10;2.30;;;;;;;;;;5024496;28;20485;-95
2021/01/26 04:09:07;;;;;;;1.70;1.57;;;;;;;;;;5023118;28;20563;-93
2021/01/26 04:11:38;;;;;;;1.90;1.60;;;;;;;;;;5026253;28;20558;-95
2021/01/26 04:14:07;;;;;;;2.03;1.80;;;;;;;;;;5024771;28;20537;-93
2021/01/26 04:16:36;;;;;;;1.83;1.50;;;;;;;;;;5024018;28;20447;-96
2021/01/26 04:19:09;;;;;;;3.20;1.67;;;;;;;;;;5026892;28;20450;-96
2021/01/26 04:21:38;;;;;;;3.13;1.63;;;;;;;;;;5024837;28;21219;-96
2021/01/26 04:24:04;;;;;;;4.90;1.57;;;;;;;;;;5025317;28;20478;-96
2021/01/26 04:26:32;;;;;;;3.53;1.93;;;;;;;;;;4995403;28;20475;-96
2021/01/26 04:29:01;;;;;;;2.67;2.10;;;;;;;;;;5023661;28;20444;-96
2021/01/26 04:31:28;;;;;;;1.67;1.50;;;;;;;;;;5023411;28;20460;-96
2021/01/26 04:33:53;;;;;;;5.03;1.97;;;;;;;;;;5025111;28;20459;-93
2021/01/26 04:36:21;;;;;;;4.60;1.60;;;;;;;;;;5021185;28;20462;-96
2021/01/26 04:38:48;;;;;;;3.47;1.90;;;;;;;;;;5025578;28;20447;-96
2021/01/26 04:41:19;;;;;;;7.70;2.03;;;;;;;;;;5024897;28;20475;-95
2021/01/26 04:43:56;;;;;;;2.80;1.43;;;;;;;;;;5015709;28;20450;-95
2021/01/26 04:46:29;;;;;;;4.30;1.70;;;;;;;;;;5024514;28;20469;-96
2021/01/26 04:51:46;;;;;;;3.33;1.80;;;;;;;;;;5024444;28;20540;-94
2021/01/26 04:54:26;;;;;;;1.70;1.60;;;;;;;;;;5024140;28;20452;-95
2021/01/26 04:56:56;;;;;;;3.40;1.70;;;;;;;;;;5024956;28;20447;-94
2021/01/26 04:59:28;;;;;;;3.17;1.70;;;;;;;;;;5025201;28;20448;-95
2021/01/26 05:02:07;;;;;;;2.83;1.80;;;;;;;;;;5023193;28;20510;-94
2021/01/26 05:04:38;;;;;;;2.80;1.50;;;;;;;;;;5024337;28;20448;-93
2021/01/26 05:07:07;;;;;;;1.90;1.40;;;;;;;;;;5022056;28;20478;-92
2021/01/26 05:09:38;;;;;;;2.93;1.50;;;;;;;;;;5023404;28;20455;-94
2021/01/26 05:12:08;;;;;;;4.03;1.67;;;;;;;;;;5018283;28;20519;-94
2021/01/26 05:14:37;;;;;;;2.43;1.60;;;;;;;;;;5018011;28;20468;-96
2021/01/26 05:17:06;;;;;;;2.07;1.70;;;;;;;;;;5022753;28;20456;-94
2021/01/26 05:19:36;;;;;;;2.67;1.70;;;;;;;;;;5020786;28;20459;-96
2021/01/26 05:22:05;;;;;;;2.10;1.60;;;;;;;;;;5022937;28;20499;-94
2021/01/26 05:24:33;;;;;;;3.20;1.83;;;;;;;;;;5024348;28;20452;-92
2021/01/26 05:27:03;;;;;;;2.30;1.77;;;;;;;;;;5021152;28;20451;-93
2021/01/26 05:29:29;;;;;;;4.10;1.50;;;;;;;;;;5024940;28;20480;-94
2021/01/26 05:31:58;;;;;;;3.50;1.80;;;;;;;;;;5022408;28;20475;-96
2021/01/26 05:34:25;;;;;;;3.70;2.10;;;;;;;;;;5027548;28;20470;-94
2021/01/26 05:36:54;;;;;;;2.90;1.50;;;;;;;;;;5015891;28;20485;-96
2021/01/26 05:39:23;;;;;;;3.27;1.67;;;;;;;;;;5011358;28;20456;-96
2021/01/26 05:41:49;;;;;;;2.83;1.63;;;;;;;;;;5023512;28;20471;-96
2021/01/26 05:44:21;;;;;;;8.97;2.83;;;;;;;;;;5017576;28;20505;-96
2021/01/26 05:46:47;;;;;;;3.13;1.57;;;;;;;;;;5021872;28;20447;-95
2021/01/26 05:49:31;;;;;;;5.10;1.90;;;;;;;;;;5025290;28;20474;-96
2021/01/26 05:52:01;;;;;;;2.53;1.50;;;;;;;;;;5040873;23;20496;-95
2021/01/26 05:54:28;;;;;;;2.87;1.67;;;;;;;;;;5001272;28;20449;-94
2021/01/26 05:56:57;;;;;;;2.70;2.27;;;;;;;;;;5004933;28;20453;-96
2021/01/26 05:59:31;;;;;;;4.13;1.67;;;;;;;;;;5006345;28;20459;-95
2021/01/26 06:02:12;;;;;;;5.00;2.00;;;;;;;;;;5005708;28;20495;-94
2021/01/26 06:04:45;;;;;;;2.27;1.60;;;;;;;;;;5004800;28;20492;-96
2021/01/26 06:07:20;;;;;;;5.40;1.47;;;;;;;;;;5006547;28;20518;-96
2021/01/26 06:09:49;;;;;;;3.27;2.10;;;;;;;;;;5008771;28;20487;-96
2021/01/26 06:12:17;;;;;;;8.57;2.57;;;;;;;;;;5001944;28;20484;-96
2021/01/26 06:14:45;;;;;;;6.63;1.97;;;;;;;;;;5007246;28;20455;-94
2021/01/26 06:17:13;;;;;;;4.90;1.90;;;;;;;;;;5008808;28;20444;-95
2021/01/26 06:19:39;;;;;;;1.67;1.57;;;;;;;;;;4999043;28;20460;-95
2021/01/26 06:22:05;;;;;;;4.67;2.70;;;;;;;;;;5008131;28;20519;-94
2021/01/26 06:24:34;;;;;;;2.30;1.60;;;;;;;;;;5006293;28;20586;-94
2021/01/26 06:27:30;;;;;;;2.43;1.70;;;;;;;;;;5006934;28;20453;-95
2021/01/26 06:30:07;;;;;;;3.27;1.50;;;;;;;;;;5005169;28;20508;-94
2021/01/26 06:32:39;;;;;;;2.50;1.40;;;;;;;;;;5004607;28;20443;-92
2021/01/26 06:35:12;;;;;;;2.50;1.33;;;;;;;;;;5003158;28;21658;-91
2021/01/26 06:37:58;;;;;;;6.10;1.97;;;;;;;;;;5006181;28;20488;-94
2021/01/26 06:40:34;;;;;;;2.37;1.60;;;;;;;;;;4997597;28;20524;-95
2021/01/26 06:43:03;;;;;;;4.50;1.80;;;;;;;;;;4999730;28;20468;-94
2021/01/26 06:45:48;;;;;;;2.30;1.30;;;;;;;;;;5006811;28;20457;-93
2021/01/26 06:48:46;;;;;;;1.90;1.80;;;;;;;;;;5032003;23;20523;-96
2021/01/26 06:54:44;;;;;;;4.30;1.63;;;;;;;;;;4987577;28;20464;-96
2021/01/26 06:57:21;;;;;;;4.70;1.60;;;;;;;;;;5011237;28;20593;-96
2021/01/26 07:00:00;;;;;;;4.00;1.60;;;;;;;;;;5012088;23;20510;-94
2021/01/26 07:05:40;;;;;;;3.50;1.80;;;;;;;;;;5012262;28;20487;-96
2021/01/26 07:08:18;;;;;;;1.90;1.70;;;;;;;;;;4971409;28;20452;-96
2021/01/26 07:11:02;;;;;;;3.80;1.80;;;;;;;;;;5010635;28;20453;-96
2021/01/26 07:13:32;;;;;;;2.73;1.70;;;;;;;;;;5002325;28;20436;-93
2021/01/26 07:16:18;;;;;;;4.33;2.87;;;;;;;;;;5008233;28;20496;-96
2021/01/26 07:19:02;;;;;;;4.33;1.73;;;;;;;;;;4998420;28;20457;-96
2021/01/26 07:21:40;;;;;;;4.70;1.70;;;;;;;;;;4998848;28;20488;-96
2021/01/26 07:24:25;;;;;;;3.10;1.50;;;;;;;;;;5007149;28;20456;-96
2021/01/26 07:27:34;;;;;;;4.27;1.73;;;;;;;;;;5006522;28;20481;-96
2021/01/26 07:30:04;;;;;;;5.50;1.70;;;;;;;;;;5000097;28;20936;-95
2021/01/26 07:32:35;;;;;;;1.83;1.63;;;;;;;;;;5008224;28;20465;-95
2021/01/26 07:35:12;;;;;;;3.20;1.80;;;;;;;;;;5001260;28;20524;-96
2021/01/26 07:37:43;;;;;;;4.30;1.67;;;;;;;;;;5003188;28;20456;-96
2021/01/26 07:40:16;;;;;;;2.33;1.50;;;;;;;;;;5007150;28;20456;-96
2021/01/26 07:42:48;;;;;;;2.90;2.03;;;;;;;;;;5005173;28;20464;-94
2021/01/26 07:45:16;;;;;;;5.17;1.80;;;;;;;;;;4999575;28;20462;-96
2021/01/26 07:47:46;;;;;;;5.60;1.77;;;;;;;;;;5000203;28;20479;-96
2021/01/26 07:50:23;;;;;;;4.77;1.60;;;;;;;;;;5002188;28;20444;-95
2021/01/26 07:53:09;;;;;;;3.53;1.57;;;;;;;;;;5005493;28;20476;-96
2021/01/26 07:58:44;;;;;;;4.23;1.83;;;;;;;;;;5774045;23;21065;-96
2021/01/26 08:01:16;;;;;;;3.60;1.50;;;;;;;;;;5020381;28;20468;-96
2021/01/26 08:03:43;;;;;;;5.80;1.93;;;;;;;;;;5009739;28;20457;-96
2021/01/26 08:06:32;;;;;;;3.60;1.77;;;;;;;;;;5017816;28;20456;-96
2021/01/26 08:08:58;;;;;;;4.10;1.80;;;;;;;;;;5013604;28;20454;-96
2021/01/26 08:11:34;;;;;;;2.60;2.10;;;;;;;;;;5021979;28;20524;-96
2021/01/26 08:16:53;;;;;;;2.67;1.70;;;;;;;;;;4917257;26;20527;-96
2021/01/26 08:22:24;;;;;;;3.70;2.53;;;;;;;;;;4988931;28;20484;-96
2021/01/26 08:25:04;;;;;;;4.80;2.20;;;;;;;;;;4981909;28;20445;-96
2021/01/26 08:27:57;;;;;;;7.57;2.10;;;;;;;;;;4986031;28;20459;-96
2021/01/26 08:33:30;;;;;;;3.57;2.00;;;;;;;;;;4988598;28;20478;-96
2021/01/26 08:42:10;;;;;;;4.80;2.73;;;;;;;;;;5215919;23;20518;-95
2021/01/26 08:44:55;;;;;;;5.23;1.73;;;;;;;;;;5022746;28;20449;-96
2021/01/26 08:47:50;;;;;;;4.83;2.20;;;;;;;;;;5024658;28;20471;-95
2021/01/26 08:50:25;;;;;;;3.80;1.57;;;;;;;;;;5012226;28;20485;-96
2021/01/26 08:55:37;;;;;;;2.53;1.70;;;;;;;;;;5019278;28;20439;-96
2021/01/26 08:58:04;;;;;;;4.77;1.93;;;;;;;;;;5013281;28;20459;-94
2021/01/26 09:00:40;;;;;;;5.53;2.10;;;;;;;;;;5027075;28;20450;-96
2021/01/26 09:21:43;;;;;;;2.00;1.73;;;;;;;;;;4980328;28;21222;-96
2021/01/26 09:27:23;;;;;;;8.13;3.10;;;;;;;;;;5054686;23;20510;-94
2021/01/26 09:30:12;;;;;;;10.60;4.93;;;;;;;;;;5006482;28;20437;-96
2021/01/26 09:33:29;;;;;;;14.20;8.70;;;;;;;;;;5009732;28;20469;-96
2021/01/26 09:39:04;;;;;;;12.83;8.87;;;;;;;;;;5002680;28;20460;-95
2021/01/26 09:41:56;;;;;;;5.77;4.70;;;;;;;;;;5080969;23;20473;-96
2021/01/26 09:44:34;;;;;;;10.30;5.10;;;;;;;;;;5071778;28;20454;-95
2021/01/26 09:47:15;;;;;;;10.27;5.00;;;;;;;;;;5075192;28;20462;-96
2021/01/26 09:49:43;;;;;;;5.97;3.37;;;;;;;;;;5073100;28;20453;-94
2021/01/26 09:52:13;;;;;;;6.63;3.63;;;;;;;;;;5178433;23;20480;-94
2021/01/26 09:54:43;;;;;;;9.50;3.00;;;;;;;;;;5100888;23;20496;31
2021/01/26 09:59:43;;;;;;;4.80;3.77;;;;;;;;;;5040696;28;20525;-94
2021/01/26 10:02:13;;;;;;;6.53;3.40;;;;;;;;;;5058599;28;20486;-96
2021/01/26 10:04:41;;;;;;;3.37;2.43;;;;;;;;;;5038287;28;20440;-96
2021/01/26 10:07:40;;;;;;;4.27;2.83;;;;;;;;;;5125690;23;20486;-96
2021/01/26 10:10:18;;;;;;;3.57;2.37;;;;;;;;;;5000319;28;20457;-96
2021/01/26 10:12:45;;;;;;;4.63;2.93;;;;;;;;;;5015584;28;20448;-96
2021/01/26 10:15:33;;;;;;;3.03;2.60;;;;;;;;;;5013410;28;20452;-95
2021/01/26 10:18:04;;;;;;;3.27;1.80;;;;;;;;;;5025594;28;20466;-92
2021/01/26 10:20:35;;;;;;;2.50;2.30;;;;;;;;;;5018104;28;20456;-94
2021/01/26 10:23:02;;;;;;;3.03;2.67;;;;;;;;;;4996097;28;20537;-94
2021/01/26 10:25:31;;;;;;;2.00;1.70;;;;;;;;;;5028949;28;20466;-94
2021/01/26 10:28:08;;;;;;;2.37;2.17;;;;;;;;;;5022673;28;20465;-96
2021/01/26 10:33:09;;;;;;;3.85;2.00;;;;;;;;;;5037465;28;20579;-96
2021/01/26 10:35:39;;;;;;;5.27;2.90;;;;;;;;;;5046492;28;20194;-95
2021/01/26 10:38:24;;;;;;;2.60;2.40;;;;;;;;;;5047154;28;20445;-95
2021/01/26 10:41:03;;;;;;;2.15;2.05;;;;;;;;;;5038176;28;20227;-93
2021/01/26 10:43:29;;;;;;;2.92;2.20;;;;;;;;;;5028426;28;20216;-94
2021/01/26 10:45:56;;;;;;;4.07;2.47;;;;;;;;;;5037671;28;20206;-96
2021/01/26 10:48:24;;;;;;;4.38;3.00;;;;;;;;;;5026963;28;20457;-91
2021/01/26 10:50:51;;;;;;;6.88;3.80;;;;;;;;;;5049957;28;20199;-93
2021/01/26 10:53:36;;;;;;;5.97;3.88;;;;;;;;;;5017629;28;20214;-95
2021/01/26 10:56:08;;;;;;;4.95;3.95;;;;;;;;;;5032337;28;20213;-95
2021/01/26 10:58:35;;;;;;;4.78;3.40;;;;;;;;;;5033002;28;20196;-91
2021/01/26 11:01:01;;;;;;;7.32;4.35;;;;;;;;;;5040397;28;20229;-94
2021/01/26 11:03:28;;;;;;;6.55;3.83;;;;;;;;;;5033535;28;20214;-94
2021/01/26 11:05:54;;;;;;;4.50;3.80;;;;;;;;;;5031822;28;20205;-93
2021/01/26 11:08:20;;;;;;;5.17;3.50;;;;;;;;;;5029247;28;20219;-93
2021/01/26 11:10:46;;;;;;;6.63;3.83;;;;;;;;;;5029387;28;20497;-95
2021/01/26 11:13:12;;;;;;;5.13;3.92;;;;;;;;;;5040666;28;20460;-93
2021/01/26 11:15:38;;;;;;;5.97;3.92;;;;;;;;;;5031048;28;20235;-96
2021/01/26 11:18:05;;;;;;;4.70;3.63;;;;;;;;;;5031169;28;20213;-94
2021/01/26 11:20:37;;;;;;;4.88;3.75;;;;;;;;;;5024837;28;20452;-96
2021/01/26 11:23:03;;;;;;;8.35;5.80;;;;;;;;;;5037016;28;20754;-92
2021/01/26 11:25:29;;;;;;;5.82;5.20;;;;;;;;;;5034429;28;20204;-96
2021/01/26 11:27:56;;;;;;;10.48;7.22;;;;;;;;;;5037648;28;20220;-95
2021/01/26 11:30:22;;;;;;;9.07;7.68;;;;;;;;;;5032198;28;20201;-93
2021/01/26 11:32:48;;;;;;;9.02;7.45;;;;;;;;;;5034372;28;20235;-90
2021/01/26 11:35:16;;;;;;;9.63;8.07;;;;;;;;;;5031801;28;20200;-93
2021/01/26 11:37:43;;;;;;;9.00;7.45;;;;;;;;;;5035881;28;20460;-94
2021/01/26 11:40:10;;;;;;;6.85;5.43;;;;;;;;;;5032884;28;20328;-95
2021/01/26 11:42:38;;;;;;;7.95;5.65;;;;;;;;;;5037897;28;20288;-94
2021/01/26 11:45:22;;;;;;;8.13;6.68;;;;;;;;;;5040769;28;20197;-96
2021/01/26 11:48:05;;;;;;;13.30;8.02;;;;;;;;;;5042560;28;20204;-96
2021/01/26 11:50:31;;;;;;;9.20;7.30;;;;;;;;;;5044270;23;20233;-96
2021/01/26 11:55:33;;;;;;;11.10;8.55;;;;;;;;;;5252318;23;20227;-96
2021/01/26 11:57:59;;;;;;;16.13;10.45;;;;;;;;;;4963069;28;20209;-95
2021/01/26 12:00:29;;;;;;;13.35;9.90;;;;;;;;;;4957850;28;20263;-96
2021/01/26 12:02:56;;;;;;;21.65;11.70;;;;;;;;;;4972817;28;20211;-96
2021/01/26 12:11:03;;;;;;;23.52;13.95;;;;;;;;;;5017071;28;20212;-96
2021/01/26 12:13:42;;;;;;;16.42;10.95;;;;;;;;;;5067879;23;20247;-96
2021/01/26 12:16:11;;;;;;;15.35;10.20;;;;;;;;;;5023736;28;20204;-96
2021/01/26 12:18:37;;;;;;;17.85;10.75;;;;;;;;;;5035949;28;20197;-93
2021/01/26 12:21:04;;;;;;;9.17;8.20;;;;;;;;;;5044764;28;20230;-95
2021/01/26 12:23:47;;;;;;;9.55;5.88;;;;;;;;;;5025832;28;20455;-96
2021/01/26 12:26:15;;;;;;;7.82;6.65;;;;;;;;;;5031934;28;20280;-95
2021/01/26 12:28:42;;;;;;;17.38;10.77;;;;;;;;;;5026760;28;20209;-95
2021/01/26 12:31:09;;;;;;;17.80;12.00;;;;;;;;;;5034370;28;20224;-91
2021/01/26 12:33:35;;;;;;;13.73;9.88;;;;;;;;;;5021500;28;20200;-96
2021/01/26 12:36:01;;;;;;;10.80;7.88;;;;;;;;;;5026196;28;20221;-94
2021/01/26 12:38:27;;;;;;;20.05;13.00;;;;;;;;;;5021506;28;20686;-92
2021/01/26 12:40:53;;;;;;;10.95;6.75;;;;;;;;;;5021176;28;20233;-94
2021/01/26 12:43:20;;;;;;;16.20;11.70;;;;;;;;;;5022821;28;20197;-91
2021/01/26 12:45:46;;;;;;;11.38;8.23;;;;;;;;;;5032392;28;20462;-92
2021/01/26 12:48:12;;;;;;;18.00;11.65;;;;;;;;;;5028156;28;20209;-90
2021/01/26 12:50:40;;;;;;;11.50;7.87;;;;;;;;;;5028052;28;20227;-90
2021/01/26 12:53:07;;;;;;;6.50;5.22;;;;;;;;;;5028490;28;20463;-95
2021/01/26 12:55:33;;;;;;;8.30;6.45;;;;;;;;;;5025909;28;20215;-89
2021/01/26 12:57:59;;;;;;;17.98;9.88;;;;;;;;;;5025137;28;20205;-89
2021/01/26 13:00:26;;;;;;;16.48;11.07;;;;;;;;;;5024266;28;20201;-88
2021/01/26 13:02:56;;;;;;;8.32;7.20;;;;;;;;;;5035977;28;20220;-95
2021/01/26 13:05:22;;;;;;;9.15;5.63;;;;;;;;;;5028122;28;20208;-94
2021/01/26 13:07:48;;;;;;;10.93;7.97;;;;;;;;;;5027015;28;20285;-95
2021/01/26 13:10:16;;;;;;;20.17;13.68;;;;;;;;;;5024341;28;20205;-93
2021/01/26 13:12:41;;;;;;;10.80;8.50;;;;;;;;;;5032011;28;20225;-91
2021/01/26 13:15:08;;;;;;;16.93;11.37;;;;;;;;;;5034638;28;20273;-92
2021/01/26 13:17:35;;;;;;;14.07;9.45;;;;;;;;;;5032002;28;20455;-90
2021/01/26 13:20:01;;;;;;;16.10;12.00;;;;;;;;;;5035277;28;20201;-92
2021/01/26 13:22:27;;;;;;;25.05;15.18;;;;;;;;;;5040285;28;20230;-91
2021/01/26 13:24:53;;;;;;;11.47;7.53;;;;;;;;;;5039267;28;20265;-93
2021/01/26 13:27:20;;;;;;;8.85;7.18;;;;;;;;;;5048516;28;20447;-92
2021/01/26 13:32:29;;;;;;;7.25;6.43;;;;;;;;;;5041981;28;20247;-95
2021/01/26 13:34:57;;;;;;;14.70;9.90;;;;;;;;;;5044748;28;20205;-94
2021/01/26 13:37:23;;;;;;;15.52;10.45;;;;;;;;;;5034527;28;20536;-96
2021/01/26 13:39:49;;;;;;;19.73;13.80;;;;;;;;;;5046475;28;20195;-94
2021/01/26 13:42:15;;;;;;;9.47;7.83;;;;;;;;;;5033535;28;22397;-96
2021/01/26 13:44:47;;;;;;;15.93;10.37;;;;;;;;;;5042712;28;20457;-94
2021/01/26 13:47:13;;;;;;;24.88;16.02;;;;;;;;;;5027052;28;20551;-93
2021/01/26 13:49:39;;;;;;;21.00;13.65;;;;;;;;;;5041915;28;20212;-94
2021/01/26 13:52:20;;;;;;;23.63;13.17;;;;;;;;;;5032571;28;20269;-96
2021/01/26 13:54:46;;;;;;;8.95;6.90;;;;;;;;;;5042219;28;20459;-95
2021/01/26 13:57:12;;;;;;;6.22;5.60;;;;;;;;;;5027235;28;20236;-92
2021/01/26 13:59:38;;;;;;;15.57;9.90;;;;;;;;;;5031755;28;20304;-91
2021/01/26 14:02:04;;;;;;;34.57;20.57;;;;;;;;;;5037402;28;20550;-94
2021/01/26 14:04:30;;;;;;;32.13;19.50;;;;;;;;;;5040383;28;20558;-92
2021/01/26 14:06:56;;;;;;;25.00;15.17;;;;;;;;;;5035054;28;20452;-90
2021/01/26 14:09:23;;;;;;;35.07;21.47;;;;;;;;;;5032527;28;20454;-92
2021/01/26 14:11:51;;;;;;;13.80;10.70;;;;;;;;;;5032401;28;20459;-93
2021/01/26 14:14:17;;;;;;;20.75;14.02;;;;;;;;;;5025506;28;20237;-88
2021/01/26 14:16:43;;;;;;;17.77;12.40;;;;;;;;;;5026179;28;20204;-93
2021/01/26 14:19:09;;;;;;;29.58;19.65;;;;;;;;;;5019829;28;20455;-91
2021/01/26 14:21:35;;;;;;;25.67;16.65;;;;;;;;;;5025623;28;20228;-91
2021/01/26 14:24:01;;;;;;;21.60;13.57;;;;;;;;;;5024587;28;20208;-94
2021/01/26 14:26:28;;;;;;;26.27;16.53;;;;;;;;;;5033023;28;20507;-90
2021/01/26 14:28:54;;;;;;;30.80;18.35;;;;;;;;;;5023161;28;21246;-90
2021/01/26 14:31:20;;;;;;;25.33;16.85;;;;;;;;;;5029763;28;20296;-91
2021/01/26 14:33:46;;;;;;;26.80;16.80;;;;;;;;;;5022699;28;20641;-93
2021/01/26 14:36:12;;;;;;;9.32;6.78;;;;;;;;;;5024534;28;20456;-91
2021/01/26 14:38:38;;;;;;;8.23;6.60;;;;;;;;;;5025268;28;20220;-93
2021/01/26 14:41:05;;;;;;;7.88;5.88;;;;;;;;;;5025368;28;20460;-92
2021/01/26 14:43:32;;;;;;;13.50;9.73;;;;;;;;;;5030447;28;20256;-92
2021/01/26 14:45:58;;;;;;;6.82;5.57;;;;;;;;;;5026480;28;20205;-93
2021/01/26 14:48:24;;;;;;;34.20;21.70;;;;;;;;;;5022475;28;20208;-93
2021/01/26 14:50:50;;;;;;;30.95;18.35;;;;;;;;;;5025040;28;20213;-93
2021/01/26 14:53:17;;;;;;;48.63;29.35;;;;;;;;;;5023081;28;20290;-93
2021/01/26 14:55:43;;;;;;;40.08;24.05;;;;;;;;;;5031535;28;20596;-93
2021/01/26 14:58:09;;;;;;;12.95;9.20;;;;;;;;;;5019649;28;20434;-93
2021/01/26 15:00:36;;;;;;;19.63;12.35;;;;;;;;;;5032412;28;20215;-90
2021/01/26 15:03:02;;;;;;;13.65;9.75;;;;;;;;;;5032469;28;20287;-89
2021/01/26 15:05:28;;;;;;;11.50;8.57;;;;;;;;;;5028724;28;20210;-90
2021/01/26 15:07:54;;;;;;;7.00;5.73;;;;;;;;;;5025469;28;20478;-90
2021/01/26 15:10:22;;;;;;;11.60;8.77;;;;;;;;;;5019072;28;20448;-92
2021/01/26 15:12:48;;;;;;;25.92;15.52;;;;;;;;;;5029071;28;20489;-91
2021/01/26 15:15:15;;;;;;;17.13;11.80;;;;;;;;;;5034178;28;20207;-92
2021/01/26 15:17:42;;;;;;;12.88;7.63;;;;;;;;;;5036361;28;20459;-93
2021/01/26 15:20:08;;;;;;;23.95;16.60;;;;;;;;;;5031634;28;20569;-90
2021/01/26 15:22:34;;;;;;;26.17;16.55;;;;;;;;;;5032357;28;20232;-94
2021/01/26 15:25:00;;;;;;;48.13;29.50;;;;;;;;;;5027134;28;20207;-90
2021/01/26 15:27:26;;;;;;;17.83;11.97;;;;;;;;;;5024607;28;20553;-95
2021/01/26 15:29:52;;;;;;;10.63;8.25;;;;;;;;;;5032855;28;20454;-94
2021/01/26 15:32:18;;;;;;;14.97;9.70;;;;;;;;;;5037136;28;20235;-91
2021/01/26 15:34:45;;;;;;;10.65;7.40;;;;;;;;;;5032577;28;20486;-94
2021/01/26 15:37:11;;;;;;;17.23;12.43;;;;;;;;;;5029874;28;20212;-94
2021/01/26 15:39:37;;;;;;;30.83;22.25;;;;;;;;;;5030039;28;20201;-89
2021/01/26 15:42:03;;;;;;;45.90;28.97;;;;;;;;;;5029375;28;20266;-91
2021/01/26 15:44:29;;;;;;;23.92;12.88;;;;;;;;;;5042079;28;20453;-93
2021/01/26 15:46:55;;;;;;;11.20;8.40;;;;;;;;;;5029918;28;20206;-94
2021/01/26 15:49:21;;;;;;;6.80;5.23;;;;;;;;;;5035261;28;21970;-95
2021/01/26 15:51:48;;;;;;;9.30;5.90;;;;;;;;;;5031775;28;20497;-94
2021/01/26 15:54:14;;;;;;;15.18;10.15;;;;;;;;;;5037214;28;20208;-92
2021/01/26 15:56:41;;;;;;;22.77;14.30;;;;;;;;;;5017997;28;20232;-92
2021/01/26 15:59:07;;;;;;;20.15;12.82;;;;;;;;;;5023296;28;20221;-92
2021/01/26 16:01:33;;;;;;;7.90;5.30;;;;;;;;;;5021607;28;20307;-92
2021/01/26 16:03:59;;;;;;;13.43;8.90;;;;;;;;;;5026979;28;20455;-92
2021/01/26 16:06:25;;;;;;;10.32;6.80;;;;;;;;;;5041036;28;20456;-91